sensor_id;sensor_type;location;lat;lon;timestamp;temperature;humidity
80132;SHT30;69442;51.442;10.564;2024-03-23T00:55:28;10.92;66.02
80132;SHT30;69442;51.442;10.564;2024-03-23T00:57:53;10.93;66.64
80132;SHT30;69442;51.442;10.564;2024-03-23T01:00:19;10.93;65.96
80132;SHT30;69442;51.442;10.564;2024-03-23T01:02:44;10.88;65.88
80132;SHT30;69442;51.442;10.564;2024-03-23T01:05:10;10.89;66.16
80132;SHT30;69442;51.442;10.564;2024-03-23T01:07:35;10.88;66.15
80132;SHT30;69442;51.442;10.564;2024-03-23T01:10:00;10.91;66.16
80132;SHT30;69442;51.442;10.564;2024-03-23T01:12:26;10.92;66.45
80132;SHT30;69442;51.442;10.564;2024-03-23T01:14:51;10.91;66.47
80132;SHT30;69442;51.442;10.564;2024-03-23T01:17:16;10.91;66.00
80132;SHT30;69442;51.442;10.564;2024-03-23T01:19:42;10.89;65.93
80132;SHT30;69442;51.442;10.564;2024-03-23T01:22:07;10.92;66.60
80132;SHT30;69442;51.442;10.564;2024-03-23T01:24:35;10.88;66.32
80132;SHT30;69442;51.442;10.564;2024-03-23T01:27:00;10.83;66.35
80132;SHT30;69442;51.442;10.564;2024-03-23T01:29:26;10.82;66.24
80132;SHT30;69442;51.442;10.564;2024-03-23T01:31:51;10.79;66.27
80132;SHT30;69442;51.442;10.564;2024-03-23T01:34:16;10.78;66.45
80132;SHT30;69442;51.442;10.564;2024-03-23T01:36:42;10.74;66.27
80132;SHT30;69442;51.442;10.564;2024-03-23T01:39:08;10.71;66.46
80132;SHT30;69442;51.442;10.564;2024-03-23T01:41:35;10.67;66.41
80132;SHT30;69442;51.442;10.564;2024-03-23T01:44:04;10.67;66.45
80132;SHT30;69442;51.442;10.564;2024-03-23T01:46:30;10.64;66.35
80132;SHT30;69442;51.442;10.564;2024-03-23T01:48:55;10.63;66.34
80132;SHT30;69442;51.442;10.564;2024-03-23T01:51:22;10.61;66.31
80132;SHT30;69442;51.442;10.564;2024-03-23T01:53:49;10.57;66.35
80132;SHT30;69442;51.442;10.564;2024-03-23T01:56:15;10.55;66.28
80132;SHT30;69442;51.442;10.564;2024-03-23T01:58:40;10.54;65.91
80132;SHT30;69442;51.442;10.564;2024-03-23T02:01:06;10.55;66.14
80132;SHT30;69442;51.442;10.564;2024-03-23T02:03:31;10.54;65.91
80132;SHT30;69442;51.442;10.564;2024-03-23T02:05:57;10.48;65.78
80132;SHT30;69442;51.442;10.564;2024-03-23T02:08:23;10.44;66.13
80132;SHT30;69442;51.442;10.564;2024-03-23T02:10:50;10.43;66.30
80132;SHT30;69442;51.442;10.564;2024-03-23T02:13:16;10.44;66.49
80132;SHT30;69442;51.442;10.564;2024-03-23T02:15:41;10.41;66.49
80132;SHT30;69442;51.442;10.564;2024-03-23T02:18:08;10.38;66.57
80132;SHT30;69442;51.442;10.564;2024-03-23T02:20:37;10.36;66.58
80132;SHT30;69442;51.442;10.564;2024-03-23T02:23:05;10.34;66.75
80132;SHT30;69442;51.442;10.564;2024-03-23T02:25:34;10.29;66.76
80132;SHT30;69442;51.442;10.564;2024-03-23T02:28:00;10.30;66.83
80132;SHT30;69442;51.442;10.564;2024-03-23T02:30:26;10.30;66.85
80132;SHT30;69442;51.442;10.564;2024-03-23T02:32:51;10.30;66.95
80132;SHT30;69442;51.442;10.564;2024-03-23T02:35:17;10.27;66.82
80132;SHT30;69442;51.442;10.564;2024-03-23T02:37:42;10.26;66.87
80132;SHT30;69442;51.442;10.564;2024-03-23T02:40:08;10.20;66.89
80132;SHT30;69442;51.442;10.564;2024-03-23T02:42:33;10.24;66.96
80132;SHT30;69442;51.442;10.564;2024-03-23T02:44:58;10.24;66.82
80132;SHT30;69442;51.442;10.564;2024-03-23T02:47:24;10.23;66.87
80132;SHT30;69442;51.442;10.564;2024-03-23T02:49:49;10.20;66.88
80132;SHT30;69442;51.442;10.564;2024-03-23T02:52:14;10.19;67.03
80132;SHT30;69442;51.442;10.564;2024-03-23T02:54:40;10.14;67.08
80132;SHT30;69442;51.442;10.564;2024-03-23T02:57:07;10.10;67.12
80132;SHT30;69442;51.442;10.564;2024-03-23T02:59:32;10.10;67.21
80132;SHT30;69442;51.442;10.564;2024-03-23T03:01:58;10.12;67.18
80132;SHT30;69442;51.442;10.564;2024-03-23T03:04:25;10.12;67.21
80132;SHT30;69442;51.442;10.564;2024-03-23T03:06:50;10.09;67.28
80132;SHT30;69442;51.442;10.564;2024-03-23T03:09:15;10.10;67.34
80132;SHT30;69442;51.442;10.564;2024-03-23T03:11:41;10.12;67.27
80132;SHT30;69442;51.442;10.564;2024-03-23T03:14:06;10.10;67.40
80132;SHT30;69442;51.442;10.564;2024-03-23T03:16:33;10.06;67.37
80132;SHT30;69442;51.442;10.564;2024-03-23T03:18:58;10.09;67.30
80132;SHT30;69442;51.442;10.564;2024-03-23T03:21:24;10.09;67.34
80132;SHT30;69442;51.442;10.564;2024-03-23T03:23:49;10.06;67.54
80132;SHT30;69442;51.442;10.564;2024-03-23T03:26:18;10.03;67.49
80132;SHT30;69442;51.442;10.564;2024-03-23T03:28:44;10.06;67.48
80132;SHT30;69442;51.442;10.564;2024-03-23T03:31:16;10.05;67.45
80132;SHT30;69442;51.442;10.564;2024-03-23T03:33:42;10.06;67.55
80132;SHT30;69442;51.442;10.564;2024-03-23T03:36:07;10.09;67.61
80132;SHT30;69442;51.442;10.564;2024-03-23T03:38:33;10.03;68.14
80132;SHT30;69442;51.442;10.564;2024-03-23T03:41:00;10.02;68.61
80132;SHT30;69442;51.442;10.564;2024-03-23T03:43:26;9.99;68.30
80132;SHT30;69442;51.442;10.564;2024-03-23T03:45:55;9.98;68.44
80132;SHT30;69442;51.442;10.564;2024-03-23T03:48:21;9.99;68.28
80132;SHT30;69442;51.442;10.564;2024-03-23T03:50:46;10.02;68.19
80132;SHT30;69442;51.442;10.564;2024-03-23T03:53:11;10.01;68.85
80132;SHT30;69442;51.442;10.564;2024-03-23T03:55:37;10.03;68.38
80132;SHT30;69442;51.442;10.564;2024-03-23T03:58:02;10.01;68.91
80132;SHT30;69442;51.442;10.564;2024-03-23T04:00:28;10.01;69.40
80132;SHT30;69442;51.442;10.564;2024-03-23T04:02:53;9.95;69.12
80132;SHT30;69442;51.442;10.564;2024-03-23T04:05:19;9.99;68.97
80132;SHT30;69442;51.442;10.564;2024-03-23T04:07:45;9.96;68.94
80132;SHT30;69442;51.442;10.564;2024-03-23T04:10:10;9.95;69.44
80132;SHT30;69442;51.442;10.564;2024-03-23T04:12:36;9.92;69.40
80132;SHT30;69442;51.442;10.564;2024-03-23T04:15:02;9.91;69.72
80132;SHT30;69442;51.442;10.564;2024-03-23T04:17:29;9.89;69.42
80132;SHT30;69442;51.442;10.564;2024-03-23T04:19:57;9.89;69.89
80132;SHT30;69442;51.442;10.564;2024-03-23T04:22:23;9.89;69.51
80132;SHT30;69442;51.442;10.564;2024-03-23T04:24:55;9.82;70.71
80132;SHT30;69442;51.442;10.564;2024-03-23T04:27:21;9.79;71.20
80132;SHT30;69442;51.442;10.564;2024-03-23T04:29:47;9.81;70.33
80132;SHT30;69442;51.442;10.564;2024-03-23T04:32:13;9.75;70.45
80132;SHT30;69442;51.442;10.564;2024-03-23T04:34:39;9.79;70.36
80132;SHT30;69442;51.442;10.564;2024-03-23T04:37:04;9.74;70.91
80132;SHT30;69442;51.442;10.564;2024-03-23T04:39:30;9.77;70.65
80132;SHT30;69442;51.442;10.564;2024-03-23T04:41:55;9.75;70.04
80132;SHT30;69442;51.442;10.564;2024-03-23T04:44:20;9.75;70.48
80132;SHT30;69442;51.442;10.564;2024-03-23T04:46:46;9.74;71.38
80132;SHT30;69442;51.442;10.564;2024-03-23T04:49:11;9.67;72.56
80132;SHT30;69442;51.442;10.564;2024-03-23T04:51:37;9.54;73.71
80132;SHT30;69442;51.442;10.564;2024-03-23T04:54:03;9.44;74.09
80132;SHT30;69442;51.442;10.564;2024-03-23T04:56:29;9.46;74.04
80132;SHT30;69442;51.442;10.564;2024-03-23T04:58:54;9.44;72.99
80132;SHT30;69442;51.442;10.564;2024-03-23T05:01:20;9.52;71.40
80132;SHT30;69442;51.442;10.564;2024-03-23T05:03:45;9.55;71.47
80132;SHT30;69442;51.442;10.564;2024-03-23T05:06:10;9.54;71.88
80132;SHT30;69442;51.442;10.564;2024-03-23T05:08:36;9.51;72.58
80132;SHT30;69442;51.442;10.564;2024-03-23T05:11:01;9.54;73.08
80132;SHT30;69442;51.442;10.564;2024-03-23T05:13:26;9.51;72.02
80132;SHT30;69442;51.442;10.564;2024-03-23T05:15:54;9.51;72.17
80132;SHT30;69442;51.442;10.564;2024-03-23T05:18:20;9.50;71.95
80132;SHT30;69442;51.442;10.564;2024-03-23T05:20:46;9.51;71.45
80132;SHT30;69442;51.442;10.564;2024-03-23T05:23:11;9.48;71.44
80132;SHT30;69442;51.442;10.564;2024-03-23T05:25:36;9.52;71.24
80132;SHT30;69442;51.442;10.564;2024-03-23T05:28:02;9.52;71.22
80132;SHT30;69442;51.442;10.564;2024-03-23T05:30:27;9.51;70.87
80132;SHT30;69442;51.442;10.564;2024-03-23T05:32:53;9.52;70.52
80132;SHT30;69442;51.442;10.564;2024-03-23T05:35:19;9.41;71.57
80132;SHT30;69442;51.442;10.564;2024-03-23T05:37:44;9.24;71.64
80132;SHT30;69442;51.442;10.564;2024-03-23T05:40:11;9.12;72.12
80132;SHT30;69442;51.442;10.564;2024-03-23T05:42:38;9.12;71.60
80132;SHT30;69442;51.442;10.564;2024-03-23T05:45:03;9.16;71.15
80132;SHT30;69442;51.442;10.564;2024-03-23T05:47:31;9.20;70.75
80132;SHT30;69442;51.442;10.564;2024-03-23T05:49:57;9.27;70.51
80132;SHT30;69442;51.442;10.564;2024-03-23T05:52:23;9.16;70.64
80132;SHT30;69442;51.442;10.564;2024-03-23T05:54:50;9.22;70.15
80132;SHT30;69442;51.442;10.564;2024-03-23T05:57:16;9.23;70.03
80132;SHT30;69442;51.442;10.564;2024-03-23T05:59:41;9.22;69.81
80132;SHT30;69442;51.442;10.564;2024-03-23T06:02:06;9.18;69.45
80132;SHT30;69442;51.442;10.564;2024-03-23T06:04:32;9.11;69.29
80132;SHT30;69442;51.442;10.564;2024-03-23T06:06:57;9.09;69.42
80132;SHT30;69442;51.442;10.564;2024-03-23T06:09:23;9.04;69.45
80132;SHT30;69442;51.442;10.564;2024-03-23T06:11:48;9.06;69.57
80132;SHT30;69442;51.442;10.564;2024-03-23T06:14:14;9.04;69.34
80132;SHT30;69442;51.442;10.564;2024-03-23T06:16:39;9.01;69.02
80132;SHT30;69442;51.442;10.564;2024-03-23T06:19:05;8.99;68.55
80132;SHT30;69442;51.442;10.564;2024-03-23T06:21:32;8.89;68.61
80132;SHT30;69442;51.442;10.564;2024-03-23T06:23:58;8.82;68.24
80132;SHT30;69442;51.442;10.564;2024-03-23T06:26:23;8.79;68.46
80132;SHT30;69442;51.442;10.564;2024-03-23T06:28:49;8.84;68.65
80132;SHT30;69442;51.442;10.564;2024-03-23T06:31:14;8.72;67.95
80132;SHT30;69442;51.442;10.564;2024-03-23T06:33:40;8.59;68.17
80132;SHT30;69442;51.442;10.564;2024-03-23T06:36:10;8.64;68.10
80132;SHT30;69442;51.442;10.564;2024-03-23T06:38:37;8.61;68.28
80132;SHT30;69442;51.442;10.564;2024-03-23T06:41:06;8.60;68.84
80132;SHT30;69442;51.442;10.564;2024-03-23T06:43:31;8.61;69.03
80132;SHT30;69442;51.442;10.564;2024-03-23T06:45:57;8.54;67.97
80132;SHT30;69442;51.442;10.564;2024-03-23T06:48:22;8.46;67.79
80132;SHT30;69442;51.442;10.564;2024-03-23T06:50:48;8.44;67.98
80132;SHT30;69442;51.442;10.564;2024-03-23T06:53:14;8.47;68.33
80132;SHT30;69442;51.442;10.564;2024-03-23T06:55:40;8.43;67.94
80132;SHT30;69442;51.442;10.564;2024-03-23T06:58:05;8.37;67.89
80132;SHT30;69442;51.442;10.564;2024-03-23T07:00:31;8.37;68.26
80132;SHT30;69442;51.442;10.564;2024-03-23T07:03:00;8.34;67.94
80132;SHT30;69442;51.442;10.564;2024-03-23T07:05:25;8.29;67.90
80132;SHT30;69442;51.442;10.564;2024-03-23T07:07:51;8.25;67.82
80132;SHT30;69442;51.442;10.564;2024-03-23T07:10:16;8.17;67.98
80132;SHT30;69442;51.442;10.564;2024-03-23T07:12:42;8.13;67.97
80132;SHT30;69442;51.442;10.564;2024-03-23T07:15:08;8.12;68.12
80132;SHT30;69442;51.442;10.564;2024-03-23T07:17:34;8.16;68.47
80132;SHT30;69442;51.442;10.564;2024-03-23T07:20:03;8.13;68.53
80132;SHT30;69442;51.442;10.564;2024-03-23T07:22:31;8.12;68.56
80132;SHT30;69442;51.442;10.564;2024-03-23T07:24:59;8.08;68.36
80132;SHT30;69442;51.442;10.564;2024-03-23T07:27:24;8.01;68.37
80132;SHT30;69442;51.442;10.564;2024-03-23T07:29:50;7.97;71.36
80132;SHT30;69442;51.442;10.564;2024-03-23T07:32:15;8.05;73.41
80132;SHT30;69442;51.442;10.564;2024-03-23T07:34:41;7.98;70.09
80132;SHT30;69442;51.442;10.564;2024-03-23T07:37:08;7.98;69.45
80132;SHT30;69442;51.442;10.564;2024-03-23T07:39:34;8.01;69.39
80132;SHT30;69442;51.442;10.564;2024-03-23T07:41:59;7.95;69.14
80132;SHT30;69442;51.442;10.564;2024-03-23T07:44:24;7.98;69.09
80132;SHT30;69442;51.442;10.564;2024-03-23T07:46:50;7.97;68.98
80132;SHT30;69442;51.442;10.564;2024-03-23T07:49:15;7.92;69.00
80132;SHT30;69442;51.442;10.564;2024-03-23T07:51:41;7.85;68.89
80132;SHT30;69442;51.442;10.564;2024-03-23T07:54:06;7.87;68.99
80132;SHT30;69442;51.442;10.564;2024-03-23T07:56:32;7.81;68.64
80132;SHT30;69442;51.442;10.564;2024-03-23T07:58:57;7.81;68.62
80132;SHT30;69442;51.442;10.564;2024-03-23T08:01:22;7.75;68.61
80132;SHT30;69442;51.442;10.564;2024-03-23T08:03:49;7.73;68.71
80132;SHT30;69442;51.442;10.564;2024-03-23T08:06:16;7.70;68.59
80132;SHT30;69442;51.442;10.564;2024-03-23T08:08:44;7.64;68.78
80132;SHT30;69442;51.442;10.564;2024-03-23T08:11:10;7.61;68.76
80132;SHT30;69442;51.442;10.564;2024-03-23T08:13:38;7.64;68.85
80132;SHT30;69442;51.442;10.564;2024-03-23T08:16:04;7.61;68.73
80132;SHT30;69442;51.442;10.564;2024-03-23T08:18:30;7.60;69.05
80132;SHT30;69442;51.442;10.564;2024-03-23T08:21:05;7.63;68.41
80132;SHT30;69442;51.442;10.564;2024-03-23T08:23:32;7.61;68.50
80132;SHT30;69442;51.442;10.564;2024-03-23T08:26:06;7.54;68.50
80132;SHT30;69442;51.442;10.564;2024-03-23T08:28:32;7.53;68.75
80132;SHT30;69442;51.442;10.564;2024-03-23T08:31:01;7.47;68.96
80132;SHT30;69442;51.442;10.564;2024-03-23T08:33:26;7.49;69.01
80132;SHT30;69442;51.442;10.564;2024-03-23T08:35:59;7.52;68.94
80132;SHT30;69442;51.442;10.564;2024-03-23T08:38:25;7.53;68.87
80132;SHT30;69442;51.442;10.564;2024-03-23T08:41:04;7.57;69.00
80132;SHT30;69442;51.442;10.564;2024-03-23T08:43:30;7.56;68.96
80132;SHT30;69442;51.442;10.564;2024-03-23T08:46:06;7.59;69.08
80132;SHT30;69442;51.442;10.564;2024-03-23T08:48:32;7.61;69.18
80132;SHT30;69442;51.442;10.564;2024-03-23T08:51:05;7.60;69.28
80132;SHT30;69442;51.442;10.564;2024-03-23T08:53:31;7.61;69.49
80132;SHT30;69442;51.442;10.564;2024-03-23T08:55:57;7.67;69.36
80132;SHT30;69442;51.442;10.564;2024-03-23T08:58:24;7.66;69.33
80132;SHT30;69442;51.442;10.564;2024-03-23T09:00:51;7.70;69.45
80132;SHT30;69442;51.442;10.564;2024-03-23T09:03:16;7.74;69.28
80132;SHT30;69442;51.442;10.564;2024-03-23T09:05:42;7.71;69.26
80132;SHT30;69442;51.442;10.564;2024-03-23T09:08:07;7.71;69.07
80132;SHT30;69442;51.442;10.564;2024-03-23T09:10:39;7.69;68.90
80132;SHT30;69442;51.442;10.564;2024-03-23T09:13:05;7.71;69.32
80132;SHT30;69442;51.442;10.564;2024-03-23T09:15:31;7.74;69.00
80132;SHT30;69442;51.442;10.564;2024-03-23T09:17:59;7.69;68.96
80132;SHT30;69442;51.442;10.564;2024-03-23T09:20:24;7.70;69.15
80132;SHT30;69442;51.442;10.564;2024-03-23T09:22:50;7.69;68.79
80132;SHT30;69442;51.442;10.564;2024-03-23T09:25:15;7.71;68.95
80132;SHT30;69442;51.442;10.564;2024-03-23T09:27:40;7.69;68.89
80132;SHT30;69442;51.442;10.564;2024-03-23T09:30:06;7.66;68.37
80132;SHT30;69442;51.442;10.564;2024-03-23T09:32:32;7.66;68.91
80132;SHT30;69442;51.442;10.564;2024-03-23T09:34:57;7.70;69.15
80132;SHT30;69442;51.442;10.564;2024-03-23T09:37:23;7.70;69.02
80132;SHT30;69442;51.442;10.564;2024-03-23T09:39:48;7.74;69.01
80132;SHT30;69442;51.442;10.564;2024-03-23T09:42:13;7.75;68.89
80132;SHT30;69442;51.442;10.564;2024-03-23T09:44:40;7.78;68.96
80132;SHT30;69442;51.442;10.564;2024-03-23T09:47:07;7.81;69.02
80132;SHT30;69442;51.442;10.564;2024-03-23T09:49:34;7.81;69.19
80132;SHT30;69442;51.442;10.564;2024-03-23T09:52:02;7.81;69.80
80132;SHT30;69442;51.442;10.564;2024-03-23T09:54:27;7.87;70.14
80132;SHT30;69442;51.442;10.564;2024-03-23T09:56:53;7.92;70.53
80132;SHT30;69442;51.442;10.564;2024-03-23T09:59:18;8.01;70.40
80132;SHT30;69442;51.442;10.564;2024-03-23T10:01:44;8.08;69.89
80132;SHT30;69442;51.442;10.564;2024-03-23T10:04:09;8.21;70.38
80132;SHT30;69442;51.442;10.564;2024-03-23T10:06:34;8.29;69.93
80132;SHT30;69442;51.442;10.564;2024-03-23T10:09:00;8.43;70.08
80132;SHT30;69442;51.442;10.564;2024-03-23T10:11:25;8.51;69.66
80132;SHT30;69442;51.442;10.564;2024-03-23T10:13:52;8.63;69.83
80132;SHT30;69442;51.442;10.564;2024-03-23T10:16:22;8.74;69.84
80132;SHT30;69442;51.442;10.564;2024-03-23T10:18:48;8.81;69.11
80132;SHT30;69442;51.442;10.564;2024-03-23T10:21:15;8.89;69.19
80132;SHT30;69442;51.442;10.564;2024-03-23T10:23:42;8.95;68.75
80132;SHT30;69442;51.442;10.564;2024-03-23T10:26:21;9.04;68.47
80132;SHT30;69442;51.442;10.564;2024-03-23T10:28:54;9.08;68.45
80132;SHT30;69442;51.442;10.564;2024-03-23T10:31:22;9.15;68.44
80132;SHT30;69442;51.442;10.564;2024-03-23T10:33:48;9.20;68.08
80132;SHT30;69442;51.442;10.564;2024-03-23T10:36:13;9.29;68.13
80132;SHT30;69442;51.442;10.564;2024-03-23T10:38:40;9.34;68.19
80132;SHT30;69442;51.442;10.564;2024-03-23T10:41:08;9.41;67.46
80132;SHT30;69442;51.442;10.564;2024-03-23T10:43:36;9.47;66.88
80132;SHT30;69442;51.442;10.564;2024-03-23T10:46:01;9.54;67.42
80132;SHT30;69442;51.442;10.564;2024-03-23T10:48:27;9.58;67.01
80132;SHT30;69442;51.442;10.564;2024-03-23T10:50:53;9.65;66.92
80132;SHT30;69442;51.442;10.564;2024-03-23T10:53:19;9.73;65.55
80132;SHT30;69442;51.442;10.564;2024-03-23T10:55:46;9.79;66.47
80132;SHT30;69442;51.442;10.564;2024-03-23T10:58:11;9.85;66.96
80132;SHT30;69442;51.442;10.564;2024-03-23T11:00:38;9.88;66.23
80132;SHT30;69442;51.442;10.564;2024-03-23T11:03:32;9.95;65.71
80132;SHT30;69442;51.442;10.564;2024-03-23T11:05:59;10.05;65.67
80132;SHT30;69442;51.442;10.564;2024-03-23T11:08:38;10.10;64.39
80132;SHT30;69442;51.442;10.564;2024-03-23T11:13:48;10.17;64.16
80132;SHT30;69442;51.442;10.564;2024-03-23T11:18:44;10.23;66.42
80132;SHT30;69442;51.442;10.564;2024-03-23T11:21:10;10.29;62.69
80132;SHT30;69442;51.442;10.564;2024-03-23T11:23:38;10.30;64.22
80132;SHT30;69442;51.442;10.564;2024-03-23T11:26:07;10.30;64.61
80132;SHT30;69442;51.442;10.564;2024-03-23T11:28:35;10.32;64.78
80132;SHT30;69442;51.442;10.564;2024-03-23T11:31:00;10.29;64.94
80132;SHT30;69442;51.442;10.564;2024-03-23T11:33:27;10.30;64.97
80132;SHT30;69442;51.442;10.564;2024-03-23T11:35:54;10.29;64.88
80132;SHT30;69442;51.442;10.564;2024-03-23T11:38:19;10.27;65.59
80132;SHT30;69442;51.442;10.564;2024-03-23T11:40:48;10.29;64.51
80132;SHT30;69442;51.442;10.564;2024-03-23T11:43:16;10.32;63.54
80132;SHT30;69442;51.442;10.564;2024-03-23T11:45:50;10.33;64.18
80132;SHT30;69442;51.442;10.564;2024-03-23T11:48:21;10.38;64.59
80132;SHT30;69442;51.442;10.564;2024-03-23T11:50:53;10.46;64.40
80132;SHT30;69442;51.442;10.564;2024-03-23T11:53:22;10.55;63.62
80132;SHT30;69442;51.442;10.564;2024-03-23T11:55:52;10.61;64.01
80132;SHT30;69442;51.442;10.564;2024-03-23T11:58:20;10.69;62.75
80132;SHT30;69442;51.442;10.564;2024-03-23T12:00:55;10.76;61.84
80132;SHT30;69442;51.442;10.564;2024-03-23T12:03:24;10.82;64.00
80132;SHT30;69442;51.442;10.564;2024-03-23T12:05:59;10.91;64.15
80132;SHT30;69442;51.442;10.564;2024-03-23T12:08:36;10.98;64.01
80132;SHT30;69442;51.442;10.564;2024-03-23T12:11:16;11.06;62.10
80132;SHT30;69442;51.442;10.564;2024-03-23T12:13:44;11.12;62.99
80132;SHT30;69442;51.442;10.564;2024-03-23T12:18:44;11.23;62.27
80132;SHT30;69442;51.442;10.564;2024-03-23T12:21:10;11.27;63.17
80132;SHT30;69442;51.442;10.564;2024-03-23T12:23:36;11.28;60.92
80132;SHT30;69442;51.442;10.564;2024-03-23T12:26:03;11.23;60.33
80132;SHT30;69442;51.442;10.564;2024-03-23T12:28:29;11.17;62.89
80132;SHT30;69442;51.442;10.564;2024-03-23T12:30:54;11.13;60.76
80132;SHT30;69442;51.442;10.564;2024-03-23T12:33:20;10.99;60.40
80132;SHT30;69442;51.442;10.564;2024-03-23T12:35:52;10.93;62.53
80132;SHT30;69442;51.442;10.564;2024-03-23T12:38:19;10.85;60.89
80132;SHT30;69442;51.442;10.564;2024-03-23T12:40:50;10.72;59.68
80132;SHT30;69442;51.442;10.564;2024-03-23T12:43:17;10.71;62.00
80132;SHT30;69442;51.442;10.564;2024-03-23T12:45:49;10.64;62.13
80132;SHT30;69442;51.442;10.564;2024-03-23T12:48:15;10.57;63.83
80132;SHT30;69442;51.442;10.564;2024-03-23T12:50:40;10.54;62.93
80132;SHT30;69442;51.442;10.564;2024-03-23T12:53:06;10.55;63.82
80132;SHT30;69442;51.442;10.564;2024-03-23T12:55:31;10.57;62.86
80132;SHT30;69442;51.442;10.564;2024-03-23T12:57:56;10.55;62.12
80132;SHT30;69442;51.442;10.564;2024-03-23T13:00:22;10.61;63.35
80132;SHT30;69442;51.442;10.564;2024-03-23T13:02:47;10.63;63.93
80132;SHT30;69442;51.442;10.564;2024-03-23T13:05:13;10.68;64.91
80132;SHT30;69442;51.442;10.564;2024-03-23T13:07:44;10.74;64.11
80132;SHT30;69442;51.442;10.564;2024-03-23T13:10:09;10.81;64.45
80132;SHT30;69442;51.442;10.564;2024-03-23T13:12:35;10.79;62.29
80132;SHT30;69442;51.442;10.564;2024-03-23T13:15:00;10.82;63.61
80132;SHT30;69442;51.442;10.564;2024-03-23T13:17:29;10.82;62.52
80132;SHT30;69442;51.442;10.564;2024-03-23T13:19:55;10.81;61.76
80132;SHT30;69442;51.442;10.564;2024-03-23T13:22:23;10.82;61.60
80132;SHT30;69442;51.442;10.564;2024-03-23T13:24:49;10.82;59.52
80132;SHT30;69442;51.442;10.564;2024-03-23T13:27:15;10.79;61.39
80132;SHT30;69442;51.442;10.564;2024-03-23T13:29:40;10.75;60.01
80132;SHT30;69442;51.442;10.564;2024-03-23T13:32:06;10.76;62.39
80132;SHT30;69442;51.442;10.564;2024-03-23T13:34:32;10.69;61.57
80132;SHT30;69442;51.442;10.564;2024-03-23T13:36:58;10.67;60.92
80132;SHT30;69442;51.442;10.564;2024-03-23T13:39:24;10.60;61.49
80132;SHT30;69442;51.442;10.564;2024-03-23T13:41:50;10.55;61.84
80132;SHT30;69442;51.442;10.564;2024-03-23T13:44:15;10.46;61.73
80132;SHT30;69442;51.442;10.564;2024-03-23T13:46:42;10.40;64.34
80132;SHT30;69442;51.442;10.564;2024-03-23T13:49:20;10.37;63.26
80132;SHT30;69442;51.442;10.564;2024-03-23T13:51:49;10.30;62.95
80132;SHT30;69442;51.442;10.564;2024-03-23T13:54:15;10.27;63.35
80132;SHT30;69442;51.442;10.564;2024-03-23T13:56:40;10.29;64.51
80132;SHT30;69442;51.442;10.564;2024-03-23T13:59:06;10.30;64.86
80132;SHT30;69442;51.442;10.564;2024-03-23T14:01:32;10.30;63.46
80132;SHT30;69442;51.442;10.564;2024-03-23T14:03:57;10.30;64.00
80132;SHT30;69442;51.442;10.564;2024-03-23T14:06:22;10.32;63.96
80132;SHT30;69442;51.442;10.564;2024-03-23T14:08:49;10.32;63.77
80132;SHT30;69442;51.442;10.564;2024-03-23T14:11:14;10.36;63.69
80132;SHT30;69442;51.442;10.564;2024-03-23T14:13:40;10.36;63.38
80132;SHT30;69442;51.442;10.564;2024-03-23T14:16:05;10.36;62.99
80132;SHT30;69442;51.442;10.564;2024-03-23T14:18:31;10.34;62.81
80132;SHT30;69442;51.442;10.564;2024-03-23T14:20:58;10.36;62.64
80132;SHT30;69442;51.442;10.564;2024-03-23T14:23:27;10.34;62.63
80132;SHT30;69442;51.442;10.564;2024-03-23T14:25:55;10.30;62.66
80132;SHT30;69442;51.442;10.564;2024-03-23T14:28:21;10.29;63.03
80132;SHT30;69442;51.442;10.564;2024-03-23T14:30:48;10.29;62.93
80132;SHT30;69442;51.442;10.564;2024-03-23T14:33:15;10.27;62.20
80132;SHT30;69442;51.442;10.564;2024-03-23T14:35:40;10.23;62.29
80132;SHT30;69442;51.442;10.564;2024-03-23T14:38:06;10.23;62.22
80132;SHT30;69442;51.442;10.564;2024-03-23T14:40:31;10.19;61.49
80132;SHT30;69442;51.442;10.564;2024-03-23T14:42:56;10.21;63.57
80132;SHT30;69442;51.442;10.564;2024-03-23T14:45:22;10.20;62.21
80132;SHT30;69442;51.442;10.564;2024-03-23T14:47:50;10.19;61.93
80132;SHT30;69442;51.442;10.564;2024-03-23T14:50:15;10.16;63.07
80132;SHT30;69442;51.442;10.564;2024-03-23T14:52:45;10.13;63.89
80132;SHT30;69442;51.442;10.564;2024-03-23T14:55:11;10.05;63.36
80132;SHT30;69442;51.442;10.564;2024-03-23T14:57:37;9.92;62.50
80132;SHT30;69442;51.442;10.564;2024-03-23T15:00:06;9.88;64.01
80132;SHT30;69442;51.442;10.564;2024-03-23T15:02:32;9.89;64.83
80132;SHT30;69442;51.442;10.564;2024-03-23T15:04:58;9.74;61.82
80132;SHT30;69442;51.442;10.564;2024-03-23T15:07:24;9.61;62.09
80132;SHT30;69442;51.442;10.564;2024-03-23T15:09:50;9.50;61.81
80132;SHT30;69442;51.442;10.564;2024-03-23T15:12:15;9.47;63.18
80132;SHT30;69442;51.442;10.564;2024-03-23T15:14:40;9.34;63.02
80132;SHT30;69442;51.442;10.564;2024-03-23T15:17:06;9.27;63.24
80132;SHT30;69442;51.442;10.564;2024-03-23T15:19:33;9.24;63.50
80132;SHT30;69442;51.442;10.564;2024-03-23T15:21:58;9.20;64.28
80132;SHT30;69442;51.442;10.564;2024-03-23T15:24:23;9.18;63.72
80132;SHT30;69442;51.442;10.564;2024-03-23T15:26:49;9.15;64.54
80132;SHT30;69442;51.442;10.564;2024-03-23T15:29:15;9.16;65.31
80132;SHT30;69442;51.442;10.564;2024-03-23T15:31:42;9.16;65.20
80132;SHT30;69442;51.442;10.564;2024-03-23T15:34:10;9.16;65.50
80132;SHT30;69442;51.442;10.564;2024-03-23T15:36:42;9.13;64.49
80132;SHT30;69442;51.442;10.564;2024-03-23T15:39:09;9.13;65.83
80132;SHT30;69442;51.442;10.564;2024-03-23T15:41:34;9.06;64.85
80132;SHT30;69442;51.442;10.564;2024-03-23T15:44:01;9.01;64.49
80132;SHT30;69442;51.442;10.564;2024-03-23T15:46:27;8.95;65.02
80132;SHT30;69442;51.442;10.564;2024-03-23T15:48:52;8.95;65.04
80132;SHT30;69442;51.442;10.564;2024-03-23T15:51:19;8.92;65.10
80132;SHT30;69442;51.442;10.564;2024-03-23T15:53:45;8.84;64.86
80132;SHT30;69442;51.442;10.564;2024-03-23T15:56:10;8.81;65.29
80132;SHT30;69442;51.442;10.564;2024-03-23T15:58:36;8.74;65.45
80132;SHT30;69442;51.442;10.564;2024-03-23T16:01:08;8.71;65.85
80132;SHT30;69442;51.442;10.564;2024-03-23T16:03:37;8.70;65.64
80132;SHT30;69442;51.442;10.564;2024-03-23T16:06:04;8.64;65.54
80132;SHT30;69442;51.442;10.564;2024-03-23T16:08:31;8.61;65.55
80132;SHT30;69442;51.442;10.564;2024-03-23T16:11:01;8.57;65.51
80132;SHT30;69442;51.442;10.564;2024-03-23T16:13:27;8.56;65.82
80132;SHT30;69442;51.442;10.564;2024-03-23T16:15:57;8.49;65.87
80132;SHT30;69442;51.442;10.564;2024-03-23T16:18:23;8.49;65.81
80132;SHT30;69442;51.442;10.564;2024-03-23T16:20:58;8.49;66.10
80132;SHT30;69442;51.442;10.564;2024-03-23T16:23:24;8.42;65.59